Schmitt & Hwy 128 CA US PGE current weather conditions

sailwx.info

Wind from 100 at 4 knots gusting 9

Air temperature 11.2° C
Dewpoint 7.5° C

Last reported at 2019-Dec-10 22:50 UTC.
Time now 2019-Dec-10 23:57 UTC

Location: N 38°38' W 122°40'.
View on Google Maps.

See reports from other nearby stations

  
Tides and Currents Weather Stations Pressure Air Temp Water Temp Dewpoint Dewpoint Depression Visibility Wind Speed Wind Dir Waves Ship Positions
date/time (UTC)wind fromknots sea level pressurealtimeterstation pressurevisibilityair tempwater tempwave heightnotes
2019-Dec-10 22:50 100 4 gusting 9 11.2
2019-Dec-10 22:40 104 4 gusting 7 11.2
2019-Dec-10 22:30 123 6 gusting 11 11.2
2019-Dec-10 22:20 127 7 gusting 13 11.2
2019-Dec-10 22:10 122 4 gusting 10 11.3
2019-Dec-10 22:00 110 8 gusting 13 11.3
2019-Dec-10 21:50 129 7 gusting 11 11.3
2019-Dec-10 21:40 120 6 gusting 10 11.4
2019-Dec-10 21:30 115 7 gusting 12 11.3
2019-Dec-10 21:20 132 5 gusting 10 11.6
2019-Dec-10 21:10 142 5 gusting 10 11.5
2019-Dec-10 21:00 147 6 gusting 10 11.4
2019-Dec-10 20:50 139 6 gusting 9 11.4
2019-Dec-10 20:40 107 4 gusting 9 11.5
2019-Dec-10 20:30 123 3 gusting 6 11.2
2019-Dec-10 20:20 144 2 gusting 5 11.0
2019-Dec-10 20:10 120 3 gusting 10 10.7
2019-Dec-10 20:00 061 2 gusting 4 10.2
2019-Dec-10 19:50 9.7
2019-Dec-10 19:40 351 2 gusting 4 9.3
2019-Dec-10 19:30 354 2 gusting 5 9.0
2019-Dec-10 19:20 300 4 gusting 6 9.0
2019-Dec-10 19:10 286 2 gusting 4 9.0
2019-Dec-10 19:00 007 1 gusting 3 8.9
2019-Dec-10 18:50 300 1 gusting 2 8.9
2019-Dec-10 18:40 148 0 gusting 3 8.8
2019-Dec-10 18:30 147 2 gusting 3 8.6
2019-Dec-10 18:20 150 3 gusting 4 8.5
2019-Dec-10 18:10 150 2 gusting 4 8.3
2019-Dec-10 18:00 124 4 gusting 7 8.1
2019-Dec-10 17:50 120 3 gusting 6 8.0
2019-Dec-10 17:40 109 4 gusting 8 7.7
2019-Dec-10 17:30 101 5 gusting 11 7.6
2019-Dec-10 17:20 120 4 gusting 8 7.6
2019-Dec-10 17:10 125 5 gusting 11 7.5
2019-Dec-10 17:00 118 3 gusting 8 7.5
2019-Dec-10 16:50 078 2 gusting 5 7.4
2019-Dec-10 16:40 066 2 gusting 4 7.4
2019-Dec-10 16:30 102 1 gusting 5 7.4
2019-Dec-10 16:20 107 2 gusting 6 7.4
2019-Dec-10 16:10 113 0 gusting 3 7.3
2019-Dec-10 16:00 044 2 gusting 4 7.3
2019-Dec-10 15:50 051 3 gusting 5 7.3
2019-Dec-10 15:40 040 2 gusting 4 7.3
2019-Dec-10 15:30 022 1 gusting 2 7.3
2019-Dec-10 15:20 021 1 gusting 2 7.2
2019-Dec-10 15:10 035 1 gusting 4 7.1
2019-Dec-10 15:00 045 1 gusting 3 7.3
2019-Dec-10 14:50 036 0 gusting 2 7.4
2019-Dec-10 14:40 049 1 gusting 2 7.4
2019-Dec-10 14:30 120 1 gusting 6 7.6
2019-Dec-10 14:20 129 3 gusting 6 7.7
2019-Dec-10 14:10 113 4 gusting 8 7.8
2019-Dec-10 14:00 096 2 gusting 4 7.7
2019-Dec-10 13:50 051 1 gusting 3 7.7
2019-Dec-10 13:40 039 1 gusting 2 7.7
2019-Dec-10 13:30 019 1 gusting 2 7.6
2019-Dec-10 13:20 042 2 gusting 3 7.2
2019-Dec-10 13:10 041 2 gusting 4 7.4
2019-Dec-10 13:00 121 1 gusting 4 8.1
2019-Dec-10 12:50 126 3 gusting 5 8.0
2019-Dec-10 12:40 164 2 gusting 6 7.8
2019-Dec-10 12:30 072 2 gusting 4 7.6
2019-Dec-10 12:20 080 1 gusting 2 7.7
2019-Dec-10 12:10 052 1 gusting 2 7.9
2019-Dec-10 12:00 058 2 gusting 3 8.3
2019-Dec-10 11:50 142 1 gusting 3 8.4
2019-Dec-10 11:40 106 1 gusting 2 8.4
2019-Dec-10 11:30 060 0 gusting 1 8.5
2019-Dec-10 11:20 125 1 gusting 2 8.5
2019-Dec-10 11:10 151 1 gusting 3 8.5
2019-Dec-10 11:00 111 0 gusting 1 8.5
2019-Dec-10 10:50 050 0 gusting 1 8.5
2019-Dec-10 10:40 050 0 gusting 0 8.5
2019-Dec-10 10:30 214 0 gusting 1 8.4
2019-Dec-10 10:20 241 1 gusting 3 8.4
2019-Dec-10 10:10 274 2 gusting 4 8.4
2019-Dec-10 10:00 300 1 gusting 2 8.4
2019-Dec-10 09:50 353 1 gusting 2 8.3
2019-Dec-10 09:40 346 0 gusting 2 8.3
2019-Dec-10 09:30 338 1 gusting 2 8.3
2019-Dec-10 09:20 318 1 gusting 2 8.2
2019-Dec-10 09:10 350 1 gusting 3 8.1
2019-Dec-10 09:00 359 1 gusting 2 8.1
2019-Dec-10 08:50 026 1 gusting 2 8.0
2019-Dec-10 08:40 054 0 gusting 2 8.0
2019-Dec-10 08:30 062 2 gusting 5 8.0
2019-Dec-10 08:20 043 3 gusting 5 8.0
2019-Dec-10 08:10 343 1 gusting 3 8.0
2019-Dec-10 08:00 046 0 gusting 4 7.9
2019-Dec-10 07:50 061 3 gusting 6 8.2
2019-Dec-10 07:40 121 2 gusting 4 8.4
2019-Dec-10 07:30 138 2 gusting 4 8.4
2019-Dec-10 07:20 123 2 gusting 7 8.3
2019-Dec-10 07:10 066 2 gusting 4 8.4
2019-Dec-10 07:00 059 3 gusting 4 8.4
2019-Dec-10 06:50 043 2 gusting 4 8.4
2019-Dec-10 06:40 019 2 gusting 3 8.5
2019-Dec-10 06:30 022 2 gusting 4 8.6
2019-Dec-10 06:20 007 2 gusting 3 8.6
2019-Dec-10 06:10 016 2 gusting 4 8.6
2019-Dec-10 06:00 016 2 gusting 4 8.7
2019-Dec-10 05:50 031 2 gusting 3 8.8
2019-Dec-10 05:40 029 2 gusting 4 8.8
2019-Dec-10 05:30 048 3 gusting 4 8.9
2019-Dec-10 05:20 038 2 gusting 4 9.0
2019-Dec-10 05:10 040 1 gusting 3 9.1
2019-Dec-10 05:00 033 1 gusting 2 9.1
2019-Dec-10 04:50 027 1 gusting 2 9.2
2019-Dec-10 04:40 019 0 gusting 2 9.2
2019-Dec-10 04:30 036 0 gusting 1 9.2
2019-Dec-10 04:20 307 0 gusting 1 9.2
2019-Dec-10 04:10 299 1 gusting 2 9.2
2019-Dec-10 04:00 313 1 gusting 4 9.2
2019-Dec-10 03:50 312 2 gusting 4 9.3
2019-Dec-10 03:40 296 3 gusting 7 9.3
2019-Dec-10 03:30 282 2 gusting 6 9.5
2019-Dec-10 03:20 338 1 gusting 1 9.5
2019-Dec-10 03:10 360 1 gusting 1 9.5
2019-Dec-10 03:00 300 0 gusting 2 9.5
2019-Dec-10 02:50 316 9.6
2019-Dec-10 02:40 314 0 gusting 2 9.7
2019-Dec-10 02:30 315 0 gusting 1 9.7
2019-Dec-10 02:20 301 1 gusting 3 9.6
2019-Dec-10 02:10 301 1 gusting 3 9.5
2019-Dec-10 02:00 025 1 gusting 2 9.5
2019-Dec-10 01:50 020 1 gusting 2 9.4
2019-Dec-10 01:40 007 1 gusting 2 9.4
2019-Dec-10 01:30 322 1 gusting 3 9.4
2019-Dec-10 01:20 328 0 gusting 2 9.4
2019-Dec-10 01:10 010 2 gusting 3 9.4
2019-Dec-10 01:00 017 1 gusting 3 9.4
2019-Dec-10 00:50 326 1 gusting 2 9.4
2019-Dec-10 00:40 029 1 gusting 3 9.3
2019-Dec-10 00:30 001 2 gusting 4 9.3
2019-Dec-10 00:20 359 2 gusting 3 9.3
2019-Dec-10 00:10 355 1 gusting 3 9.2
2019-Dec-10 00:00 001 1 gusting 2 9.2
2019-Dec-09 23:50 312 0 gusting 1 9.1
2019-Dec-09 23:40 295 1 gusting 2 9.1
2019-Dec-09 23:30 281 2 gusting 3 9.0
2019-Dec-09 23:20 261 2 gusting 4 9.0
2019-Dec-09 23:10 263 3 gusting 4 9.1
2019-Dec-09 23:00 269 3 gusting 6 9.1
2019-Dec-09 22:50 282 3 gusting 6 9.1
2019-Dec-09 22:40 293 3 gusting 5 9.1
2019-Dec-09 22:30 293 3 gusting 5 9.2
2019-Dec-09 22:20 288 2 gusting 4 9.1
2019-Dec-09 22:10 284 3 gusting 4 9.2
2019-Dec-09 22:00 330 1 gusting 4 9.1
2019-Dec-09 21:50 309 2 gusting 4 9.0
2019-Dec-09 21:40 262 1 gusting 4 9.0
2019-Dec-09 21:30 264 1 gusting 5 8.9
2019-Dec-09 21:20 276 1 gusting 4 8.9
2019-Dec-09 21:10 318 1 gusting 3 8.9
2019-Dec-09 21:00 355 2 gusting 4 8.7
2019-Dec-09 20:50 003 2 gusting 4 8.7
2019-Dec-09 20:40 341 2 gusting 4 8.7
2019-Dec-09 20:30 294 1 gusting 4 8.7
2019-Dec-09 20:20 310 2 gusting 4 8.5
2019-Dec-09 20:10 298 1 gusting 3 8.5
2019-Dec-09 20:00 276 1 gusting 4 8.4
2019-Dec-09 19:50 344 0 gusting 3 8.4
2019-Dec-09 19:40 310 1 gusting 3 8.3
2019-Dec-09 19:30 273 2 gusting 4 8.3
2019-Dec-09 19:20 340 0 gusting 2 8.2
2019-Dec-09 19:10 332 1 gusting 3 8.1
2019-Dec-09 19:00 281 1 gusting 3 8.0
2019-Dec-09 18:50 224 0 gusting 2 7.8
2019-Dec-09 18:40 262 0 gusting 2 7.8
2019-Dec-09 18:30 135 0 gusting 1 7.6
2019-Dec-09 18:20 268 0 gusting 2 7.3
2019-Dec-09 18:10 265 1 gusting 2 7.1
2019-Dec-09 18:00 276 2 gusting 3 7.0
2019-Dec-09 17:50 252 0 gusting 2 7.1
2019-Dec-09 17:40 153 1 gusting 3 6.9
2019-Dec-09 17:30 132 1 gusting 2 6.9
2019-Dec-09 17:20 187 0 gusting 1 6.9
2019-Dec-09 17:10 050 0 gusting 2 6.8
2019-Dec-09 17:00 077 1 gusting 2 6.8
2019-Dec-09 16:50 079 0 gusting 1 6.6
2019-Dec-09 16:40 195 0 gusting 1 6.5
2019-Dec-09 16:30 104 0 gusting 2 6.3
2019-Dec-09 16:20 031 1 gusting 2 6.2
2019-Dec-09 16:10 042 1 gusting 3 6.1
2019-Dec-09 16:00 043 2 gusting 3 6.1
2019-Dec-09 15:50 039 1 gusting 2 6.1
2019-Dec-09 15:40 041 1 gusting 2 6.2
2019-Dec-09 15:30 049 1 gusting 2 6.3
2019-Dec-09 15:20 005 1 gusting 2 6.2
2019-Dec-09 15:10 019 1 gusting 2 6.3
2019-Dec-09 15:00 041 1 gusting 2 6.3
2019-Dec-09 14:50 056 1 gusting 2 6.3
2019-Dec-09 14:40 050 2 gusting 3 6.3
2019-Dec-09 14:30 038 1 gusting 2 6.4
2019-Dec-09 14:20 034 1 gusting 2 6.5
2019-Dec-09 14:10 046 2 gusting 3 6.5
2019-Dec-09 14:00 037 2 gusting 3 6.5
2019-Dec-09 13:50 036 2 gusting 3 6.6
2019-Dec-09 13:40 048 1 gusting 3 6.9
2019-Dec-09 13:30 036 1 gusting 2 6.8
2019-Dec-09 13:20 034 1 gusting 2 7.0
2019-Dec-09 13:10 024 0 gusting 1 7.1
2019-Dec-09 13:00 070 0 gusting 1 7.2
2019-Dec-09 12:50 020 1 gusting 2 7.2
2019-Dec-09 12:40 046 1 gusting 2 7.3
2019-Dec-09 12:30 044 1 gusting 2 7.3
2019-Dec-09 12:20 262 0 gusting 2 7.5
2019-Dec-09 12:10 253 0 gusting 1 7.6
2019-Dec-09 12:00 296 0 gusting 1 7.7
2019-Dec-09 11:50 023 0 gusting 2 7.6
2019-Dec-09 11:40 061 0 gusting 2 7.7
2019-Dec-09 11:30 309 0 gusting 2 7.7
2019-Dec-09 11:20 103 0 gusting 1 7.7
2019-Dec-09 11:10 065 0 gusting 2 7.6
2019-Dec-09 11:00 209 0 gusting 2 7.8
2019-Dec-09 10:50 001 0 gusting 1 7.7
2019-Dec-09 10:40 048 0 gusting 2 7.8
2019-Dec-09 10:30 040 0 gusting 2 8.0
2019-Dec-09 10:20 026 1 gusting 3 7.9
2019-Dec-09 10:10 035 1 gusting 3 8.0
2019-Dec-09 10:00 038 0 gusting 3 8.1
2019-Dec-09 09:50 042 1 gusting 3 8.3
2019-Dec-09 09:40 030 0 gusting 1 8.4
2019-Dec-09 09:30 026 0 gusting 1 8.4
2019-Dec-09 09:20 112 0 gusting 1 8.3
2019-Dec-09 09:10 8.2
2019-Dec-09 09:00 117 0 gusting 0 8.1
2019-Dec-09 08:50 164 0 gusting 0 8.2
2019-Dec-09 08:40 190 1 gusting 2 8.6
2019-Dec-09 08:30 336 0 gusting 1 9.0
2019-Dec-09 08:20 028 0 gusting 1 8.8
2019-Dec-09 08:10 8.5
2019-Dec-09 08:00 159 0 gusting 1 8.4
2019-Dec-09 07:50 148 0 gusting 1 8.5
2019-Dec-09 07:40 056 1 gusting 2 8.6
2019-Dec-09 07:30 049 2 gusting 3 8.5
2019-Dec-09 07:20 040 1 gusting 2 8.3
2019-Dec-09 07:10 024 1 gusting 3 8.6
2019-Dec-09 07:00 037 2 gusting 5 8.3
2019-Dec-09 06:50 056 0 gusting 1 8.1
2019-Dec-09 06:40 087 1 gusting 2 8.2
2019-Dec-09 06:30 053 1 gusting 2 8.2
2019-Dec-09 06:20 037 2 gusting 5 8.2
2019-Dec-09 06:10 028 2 gusting 4 8.6
2019-Dec-09 06:00 043 0 gusting 2 8.6
2019-Dec-09 05:50 329 1 gusting 2 8.6
2019-Dec-09 05:40 002 2 gusting 3 8.8
2019-Dec-09 05:30 018 1 gusting 3 8.9
2019-Dec-09 05:20 041 3 gusting 5 9.0
2019-Dec-09 05:10 015 1 gusting 4 9.1
2019-Dec-09 05:00 064 0 gusting 2 9.2
2019-Dec-09 04:50 066 0 gusting 4 9.1
2019-Dec-09 04:40 053 2 gusting 4 9.4
2019-Dec-09 04:30 012 1 gusting 2 9.4
2019-Dec-09 04:20 032 2 gusting 3 9.7
2019-Dec-09 04:10 007 1 gusting 2 9.8
2019-Dec-09 04:00 050 2 gusting 4 9.9
2019-Dec-09 03:50 047 0 gusting 2 10.0
2019-Dec-09 03:40 048 1 gusting 2 10.2
2019-Dec-09 03:30 050 2 gusting 3 10.3
2019-Dec-09 03:20 049 1 gusting 3 10.4
2019-Dec-09 03:10 021 1 gusting 2 10.6
2019-Dec-09 03:00 036 1 gusting 3 10.8
2019-Dec-09 02:50 042 1 gusting 2 10.9
2019-Dec-09 02:40 066 1 gusting 2 11.2
2019-Dec-09 02:30 013 1 gusting 2 11.5
2019-Dec-09 02:20 024 0 gusting 1 11.7
2019-Dec-09 02:10 355 0 gusting 2 12.0
2019-Dec-09 02:00 076 1 gusting 2 12.2
2019-Dec-09 01:50 195 0 gusting 1 12.3
2019-Dec-09 01:40 033 0 gusting 0 12.2
2019-Dec-09 01:30 347 0 gusting 1 12.3
2019-Dec-09 01:20 356 1 gusting 2 12.4
2019-Dec-09 01:10 050 1 gusting 1 12.9
2019-Dec-09 01:00 063 1 gusting 2 13.4
2019-Dec-09 00:50 082 0 gusting 1 14.0
2019-Dec-09 00:40 118 2 gusting 2 14.3
2019-Dec-09 00:30 133 2 gusting 2 14.6
2019-Dec-09 00:20 146 1 gusting 2 14.8
2019-Dec-09 00:10 163 1 gusting 2 14.7
2019-Dec-09 00:00 128 1 gusting 2 14.5
2019-Dec-08 23:50 135 2 gusting 3 14.3
2019-Dec-08 23:40 132 2 gusting 4 14.4
2019-Dec-08 23:30 132 2 gusting 4 14.5
2019-Dec-08 23:20 135 2 gusting 3 14.6
2019-Dec-08 23:10 187 0 gusting 2 14.7
2019-Dec-08 23:00 199 2 gusting 3 14.7